sensor_id;sensor_type;location;lat;lon;timestamp;P1;durP1;ratioP1;P2;durP2;ratioP2
24801;SDS011;12898;50.520;12.152;2023-03-01T00:01:52;46.37;;;24.50;;
24801;SDS011;12898;50.520;12.152;2023-03-01T00:04:18;45.47;;;23.10;;
24801;SDS011;12898;50.520;12.152;2023-03-01T00:06:44;43.93;;;23.53;;
24801;SDS011;12898;50.520;12.152;2023-03-01T00:09:11;45.17;;;23.73;;
24801;SDS011;12898;50.520;12.152;2023-03-01T00:11:38;44.83;;;23.70;;
24801;SDS011;12898;50.520;12.152;2023-03-01T00:14:04;47.00;;;23.83;;
24801;SDS011;12898;50.520;12.152;2023-03-01T00:16:33;43.57;;;23.30;;
24801;SDS011;12898;50.520;12.152;2023-03-01T00:19:03;43.53;;;23.60;;
24801;SDS011;12898;50.520;12.152;2023-03-01T00:21:29;42.60;;;23.57;;
24801;SDS011;12898;50.520;12.152;2023-03-01T00:23:55;47.93;;;25.47;;
24801;SDS011;12898;50.520;12.152;2023-03-01T00:26:21;46.97;;;24.10;;
24801;SDS011;12898;50.520;12.152;2023-03-01T00:28:49;46.67;;;23.93;;
24801;SDS011;12898;50.520;12.152;2023-03-01T00:31:19;48.03;;;23.80;;
24801;SDS011;12898;50.520;12.152;2023-03-01T00:33:46;48.90;;;23.67;;
24801;SDS011;12898;50.520;12.152;2023-03-01T00:36:13;50.40;;;24.20;;
24801;SDS011;12898;50.520;12.152;2023-03-01T00:38:42;46.83;;;24.37;;
24801;SDS011;12898;50.520;12.152;2023-03-01T00:41:11;43.70;;;23.47;;
24801;SDS011;12898;50.520;12.152;2023-03-01T00:43:43;44.70;;;24.20;;
24801;SDS011;12898;50.520;12.152;2023-03-01T00:46:10;45.93;;;22.90;;
24801;SDS011;12898;50.520;12.152;2023-03-01T00:48:39;45.70;;;23.33;;
24801;SDS011;12898;50.520;12.152;2023-03-01T00:51:06;44.17;;;23.43;;
24801;SDS011;12898;50.520;12.152;2023-03-01T00:53:35;44.70;;;22.60;;
24801;SDS011;12898;50.520;12.152;2023-03-01T00:56:02;44.13;;;21.97;;
24801;SDS011;12898;50.520;12.152;2023-03-01T00:58:29;45.77;;;22.90;;
24801;SDS011;12898;50.520;12.152;2023-03-01T01:00:55;42.50;;;22.60;;
24801;SDS011;12898;50.520;12.152;2023-03-01T01:03:21;42.73;;;22.23;;
24801;SDS011;12898;50.520;12.152;2023-03-01T01:05:49;42.60;;;21.43;;
24801;SDS011;12898;50.520;12.152;2023-03-01T01:08:16;45.63;;;24.50;;
24801;SDS011;12898;50.520;12.152;2023-03-01T01:10:44;44.47;;;23.43;;
24801;SDS011;12898;50.520;12.152;2023-03-01T01:13:10;41.00;;;22.50;;
24801;SDS011;12898;50.520;12.152;2023-03-01T01:15:36;43.70;;;23.47;;
24801;SDS011;12898;50.520;12.152;2023-03-01T01:18:02;43.03;;;22.23;;
24801;SDS011;12898;50.520;12.152;2023-03-01T01:20:27;43.93;;;22.50;;
24801;SDS011;12898;50.520;12.152;2023-03-01T01:22:53;41.47;;;23.27;;
24801;SDS011;12898;50.520;12.152;2023-03-01T01:25:19;45.90;;;23.30;;
24801;SDS011;12898;50.520;12.152;2023-03-01T01:27:45;46.90;;;24.47;;
24801;SDS011;12898;50.520;12.152;2023-03-01T01:30:11;51.07;;;25.40;;
24801;SDS011;12898;50.520;12.152;2023-03-01T01:32:37;42.60;;;23.03;;
24801;SDS011;12898;50.520;12.152;2023-03-01T01:35:03;46.43;;;22.47;;
24801;SDS011;12898;50.520;12.152;2023-03-01T01:37:29;45.23;;;23.73;;
24801;SDS011;12898;50.520;12.152;2023-03-01T01:39:58;44.90;;;23.30;;
24801;SDS011;12898;50.520;12.152;2023-03-01T01:42:25;43.47;;;22.53;;
24801;SDS011;12898;50.520;12.152;2023-03-01T01:47:59;45.87;;;22.10;;
24801;SDS011;12898;50.520;12.152;2023-03-01T01:50:29;49.10;;;24.87;;
24801;SDS011;12898;50.520;12.152;2023-03-01T01:53:10;43.50;;;23.20;;
24801;SDS011;12898;50.520;12.152;2023-03-01T01:55:45;47.67;;;23.50;;
24801;SDS011;12898;50.520;12.152;2023-03-01T01:58:16;44.57;;;22.87;;
24801;SDS011;12898;50.520;12.152;2023-03-01T02:00:44;46.50;;;24.43;;
24801;SDS011;12898;50.520;12.152;2023-03-01T02:03:11;41.63;;;23.13;;
24801;SDS011;12898;50.520;12.152;2023-03-01T02:05:48;45.23;;;23.90;;
24801;SDS011;12898;50.520;12.152;2023-03-01T02:08:37;51.50;;;25.20;;
24801;SDS011;12898;50.520;12.152;2023-03-01T02:11:06;48.53;;;25.80;;
24801;SDS011;12898;50.520;12.152;2023-03-01T02:13:34;48.83;;;24.30;;
24801;SDS011;12898;50.520;12.152;2023-03-01T02:16:18;53.57;;;26.77;;
24801;SDS011;12898;50.520;12.152;2023-03-01T02:18:44;41.83;;;23.20;;
24801;SDS011;12898;50.520;12.152;2023-03-01T02:23:55;47.43;;;24.77;;
24801;SDS011;12898;50.520;12.152;2023-03-01T02:26:33;48.70;;;24.47;;
24801;SDS011;12898;50.520;12.152;2023-03-01T02:29:10;45.80;;;24.53;;
24801;SDS011;12898;50.520;12.152;2023-03-01T02:31:37;52.47;;;25.83;;
24801;SDS011;12898;50.520;12.152;2023-03-01T02:34:16;46.43;;;23.30;;
24801;SDS011;12898;50.520;12.152;2023-03-01T02:36:49;49.50;;;24.67;;
24801;SDS011;12898;50.520;12.152;2023-03-01T02:39:48;44.10;;;22.67;;
24801;SDS011;12898;50.520;12.152;2023-03-01T02:42:31;54.03;;;24.93;;
24801;SDS011;12898;50.520;12.152;2023-03-01T02:45:02;48.33;;;24.13;;
24801;SDS011;12898;50.520;12.152;2023-03-01T02:47:28;50.87;;;25.10;;
24801;SDS011;12898;50.520;12.152;2023-03-01T02:49:54;50.67;;;26.07;;
24801;SDS011;12898;50.520;12.152;2023-03-01T02:55:14;50.37;;;24.07;;
24801;SDS011;12898;50.520;12.152;2023-03-01T02:57:42;47.83;;;25.17;;
24801;SDS011;12898;50.520;12.152;2023-03-01T03:00:14;50.87;;;24.97;;
24801;SDS011;12898;50.520;12.152;2023-03-01T03:02:48;48.03;;;24.80;;
24801;SDS011;12898;50.520;12.152;2023-03-01T03:07:49;49.70;;;25.77;;
24801;SDS011;12898;50.520;12.152;2023-03-01T03:10:26;51.10;;;25.03;;
24801;SDS011;12898;50.520;12.152;2023-03-01T03:12:56;49.70;;;25.07;;
24801;SDS011;12898;50.520;12.152;2023-03-01T03:15:26;45.07;;;23.60;;
24801;SDS011;12898;50.520;12.152;2023-03-01T03:17:53;52.77;;;24.87;;
24801;SDS011;12898;50.520;12.152;2023-03-01T03:20:20;46.73;;;23.03;;
24801;SDS011;12898;50.520;12.152;2023-03-01T03:22:50;49.17;;;24.97;;
24801;SDS011;12898;50.520;12.152;2023-03-01T03:25:19;49.83;;;24.73;;
24801;SDS011;12898;50.520;12.152;2023-03-01T03:27:47;55.73;;;27.10;;
24801;SDS011;12898;50.520;12.152;2023-03-01T03:30:15;47.90;;;24.20;;
24801;SDS011;12898;50.520;12.152;2023-03-01T03:32:45;48.43;;;24.57;;
24801;SDS011;12898;50.520;12.152;2023-03-01T03:35:22;49.93;;;24.73;;
24801;SDS011;12898;50.520;12.152;2023-03-01T03:37:53;48.80;;;24.27;;
24801;SDS011;12898;50.520;12.152;2023-03-01T03:40:29;54.57;;;26.87;;
24801;SDS011;12898;50.520;12.152;2023-03-01T03:43:06;52.83;;;24.67;;
24801;SDS011;12898;50.520;12.152;2023-03-01T03:45:45;54.43;;;25.77;;
24801;SDS011;12898;50.520;12.152;2023-03-01T03:48:12;48.27;;;24.10;;
24801;SDS011;12898;50.520;12.152;2023-03-01T03:50:38;56.40;;;26.17;;
24801;SDS011;12898;50.520;12.152;2023-03-01T03:53:07;49.93;;;25.37;;
24801;SDS011;12898;50.520;12.152;2023-03-01T03:55:37;49.93;;;25.30;;
24801;SDS011;12898;50.520;12.152;2023-03-01T03:58:04;50.83;;;26.13;;
24801;SDS011;12898;50.520;12.152;2023-03-01T04:00:34;50.07;;;24.97;;
24801;SDS011;12898;50.520;12.152;2023-03-01T04:03:01;53.87;;;26.03;;
24801;SDS011;12898;50.520;12.152;2023-03-01T04:05:28;51.13;;;25.53;;
24801;SDS011;12898;50.520;12.152;2023-03-01T04:07:54;55.97;;;24.40;;
24801;SDS011;12898;50.520;12.152;2023-03-01T04:10:28;47.03;;;23.63;;
24801;SDS011;12898;50.520;12.152;2023-03-01T04:12:56;46.33;;;23.27;;
24801;SDS011;12898;50.520;12.152;2023-03-01T04:15:22;47.73;;;23.53;;
24801;SDS011;12898;50.520;12.152;2023-03-01T04:17:51;46.30;;;23.87;;
24801;SDS011;12898;50.520;12.152;2023-03-01T04:20:20;45.27;;;22.80;;
24801;SDS011;12898;50.520;12.152;2023-03-01T04:22:50;51.60;;;24.77;;
24801;SDS011;12898;50.520;12.152;2023-03-01T04:25:46;46.13;;;23.97;;
24801;SDS011;12898;50.520;12.152;2023-03-01T04:28:27;49.73;;;22.60;;
24801;SDS011;12898;50.520;12.152;2023-03-01T04:30:58;46.27;;;23.47;;
24801;SDS011;12898;50.520;12.152;2023-03-01T04:33:42;49.27;;;24.70;;
24801;SDS011;12898;50.520;12.152;2023-03-01T04:36:19;46.07;;;24.07;;
24801;SDS011;12898;50.520;12.152;2023-03-01T04:38:48;46.87;;;23.93;;
24801;SDS011;12898;50.520;12.152;2023-03-01T04:41:15;44.80;;;23.33;;
24801;SDS011;12898;50.520;12.152;2023-03-01T04:43:43;51.20;;;24.90;;
24801;SDS011;12898;50.520;12.152;2023-03-01T04:46:11;47.37;;;24.27;;
24801;SDS011;12898;50.520;12.152;2023-03-01T04:48:41;52.97;;;26.83;;
24801;SDS011;12898;50.520;12.152;2023-03-01T04:51:08;48.77;;;24.63;;
24801;SDS011;12898;50.520;12.152;2023-03-01T04:53:34;48.77;;;24.47;;
24801;SDS011;12898;50.520;12.152;2023-03-01T04:56:03;45.63;;;23.13;;
24801;SDS011;12898;50.520;12.152;2023-03-01T04:58:30;44.77;;;23.20;;
24801;SDS011;12898;50.520;12.152;2023-03-01T05:00:56;49.93;;;24.60;;
24801;SDS011;12898;50.520;12.152;2023-03-01T05:03:21;61.20;;;28.03;;
24801;SDS011;12898;50.520;12.152;2023-03-01T05:05:48;55.70;;;27.03;;
24801;SDS011;12898;50.520;12.152;2023-03-01T05:08:16;62.17;;;28.53;;
24801;SDS011;12898;50.520;12.152;2023-03-01T05:10:46;53.53;;;28.77;;
24801;SDS011;12898;50.520;12.152;2023-03-01T05:13:15;55.17;;;27.07;;
24801;SDS011;12898;50.520;12.152;2023-03-01T05:15:46;47.90;;;25.43;;
24801;SDS011;12898;50.520;12.152;2023-03-01T05:18:23;51.63;;;25.27;;
24801;SDS011;12898;50.520;12.152;2023-03-01T05:20:53;53.37;;;25.90;;
24801;SDS011;12898;50.520;12.152;2023-03-01T05:23:21;51.70;;;25.70;;
24801;SDS011;12898;50.520;12.152;2023-03-01T05:25:48;46.47;;;23.10;;
24801;SDS011;12898;50.520;12.152;2023-03-01T05:28:14;47.73;;;25.03;;
24801;SDS011;12898;50.520;12.152;2023-03-01T05:30:40;52.30;;;24.47;;
24801;SDS011;12898;50.520;12.152;2023-03-01T05:33:06;46.07;;;23.33;;
24801;SDS011;12898;50.520;12.152;2023-03-01T05:35:38;46.63;;;23.70;;
24801;SDS011;12898;50.520;12.152;2023-03-01T05:38:06;48.20;;;24.27;;
24801;SDS011;12898;50.520;12.152;2023-03-01T05:40:32;52.33;;;24.67;;
24801;SDS011;12898;50.520;12.152;2023-03-01T05:42:59;48.10;;;24.53;;
24801;SDS011;12898;50.520;12.152;2023-03-01T05:45:25;50.77;;;26.53;;
24801;SDS011;12898;50.520;12.152;2023-03-01T05:47:52;55.07;;;27.83;;
24801;SDS011;12898;50.520;12.152;2023-03-01T05:50:21;53.20;;;26.37;;
24801;SDS011;12898;50.520;12.152;2023-03-01T05:53:03;49.10;;;25.20;;
24801;SDS011;12898;50.520;12.152;2023-03-01T05:55:36;48.10;;;24.23;;
24801;SDS011;12898;50.520;12.152;2023-03-01T05:58:03;52.40;;;25.87;;
24801;SDS011;12898;50.520;12.152;2023-03-01T06:00:32;44.90;;;22.27;;
24801;SDS011;12898;50.520;12.152;2023-03-01T06:03:00;46.37;;;23.97;;
24801;SDS011;12898;50.520;12.152;2023-03-01T06:05:26;47.87;;;24.80;;
24801;SDS011;12898;50.520;12.152;2023-03-01T06:07:53;43.83;;;23.47;;
24801;SDS011;12898;50.520;12.152;2023-03-01T06:10:19;56.67;;;26.17;;
24801;SDS011;12898;50.520;12.152;2023-03-01T06:12:46;52.93;;;26.77;;
24801;SDS011;12898;50.520;12.152;2023-03-01T06:15:13;48.67;;;24.80;;
24801;SDS011;12898;50.520;12.152;2023-03-01T06:17:41;47.37;;;23.33;;
24801;SDS011;12898;50.520;12.152;2023-03-01T06:20:10;45.57;;;23.30;;
24801;SDS011;12898;50.520;12.152;2023-03-01T06:22:45;48.97;;;24.37;;
24801;SDS011;12898;50.520;12.152;2023-03-01T06:25:12;45.97;;;23.10;;
24801;SDS011;12898;50.520;12.152;2023-03-01T06:27:41;45.23;;;23.27;;
24801;SDS011;12898;50.520;12.152;2023-03-01T06:30:08;45.23;;;23.57;;
24801;SDS011;12898;50.520;12.152;2023-03-01T06:32:37;47.97;;;24.77;;
24801;SDS011;12898;50.520;12.152;2023-03-01T06:35:07;48.30;;;24.63;;
24801;SDS011;12898;50.520;12.152;2023-03-01T06:37:37;49.50;;;23.97;;
24801;SDS011;12898;50.520;12.152;2023-03-01T06:40:04;45.97;;;22.97;;
24801;SDS011;12898;50.520;12.152;2023-03-01T06:42:36;49.67;;;23.67;;
24801;SDS011;12898;50.520;12.152;2023-03-01T06:45:04;43.63;;;22.43;;
24801;SDS011;12898;50.520;12.152;2023-03-01T06:47:32;44.77;;;23.23;;
24801;SDS011;12898;50.520;12.152;2023-03-01T06:50:01;56.27;;;24.63;;
24801;SDS011;12898;50.520;12.152;2023-03-01T06:52:28;53.10;;;23.97;;
24801;SDS011;12898;50.520;12.152;2023-03-01T06:54:54;47.83;;;24.13;;
24801;SDS011;12898;50.520;12.152;2023-03-01T06:57:20;48.10;;;24.43;;
24801;SDS011;12898;50.520;12.152;2023-03-01T06:59:46;52.27;;;25.80;;
24801;SDS011;12898;50.520;12.152;2023-03-01T07:02:12;52.20;;;26.47;;
24801;SDS011;12898;50.520;12.152;2023-03-01T07:04:40;50.50;;;25.33;;
24801;SDS011;12898;50.520;12.152;2023-03-01T07:07:06;54.43;;;26.70;;
24801;SDS011;12898;50.520;12.152;2023-03-01T07:09:32;52.17;;;25.23;;
24801;SDS011;12898;50.520;12.152;2023-03-01T07:11:58;55.33;;;27.33;;
24801;SDS011;12898;50.520;12.152;2023-03-01T07:14:23;47.90;;;25.70;;
24801;SDS011;12898;50.520;12.152;2023-03-01T07:16:50;49.13;;;25.53;;
24801;SDS011;12898;50.520;12.152;2023-03-01T07:19:17;57.00;;;28.33;;
24801;SDS011;12898;50.520;12.152;2023-03-01T07:21:43;54.40;;;28.37;;
24801;SDS011;12898;50.520;12.152;2023-03-01T07:24:09;55.10;;;28.73;;
24801;SDS011;12898;50.520;12.152;2023-03-01T07:26:35;57.70;;;28.83;;
24801;SDS011;12898;50.520;12.152;2023-03-01T07:29:02;54.77;;;27.97;;
24801;SDS011;12898;50.520;12.152;2023-03-01T07:31:30;52.37;;;27.73;;
24801;SDS011;12898;50.520;12.152;2023-03-01T07:33:56;55.57;;;28.53;;
24801;SDS011;12898;50.520;12.152;2023-03-01T07:36:22;62.80;;;31.20;;
24801;SDS011;12898;50.520;12.152;2023-03-01T07:38:48;58.07;;;30.13;;
24801;SDS011;12898;50.520;12.152;2023-03-01T07:41:14;61.63;;;32.80;;
24801;SDS011;12898;50.520;12.152;2023-03-01T07:43:40;65.23;;;32.73;;
24801;SDS011;12898;50.520;12.152;2023-03-01T07:46:05;56.13;;;29.90;;
24801;SDS011;12898;50.520;12.152;2023-03-01T07:48:32;52.43;;;29.17;;
24801;SDS011;12898;50.520;12.152;2023-03-01T07:51:01;54.50;;;31.67;;
24801;SDS011;12898;50.520;12.152;2023-03-01T07:53:30;55.27;;;29.00;;
24801;SDS011;12898;50.520;12.152;2023-03-01T07:56:00;49.07;;;27.90;;
24801;SDS011;12898;50.520;12.152;2023-03-01T07:58:31;46.13;;;28.23;;
24801;SDS011;12898;50.520;12.152;2023-03-01T08:01:01;48.90;;;27.97;;
24801;SDS011;12898;50.520;12.152;2023-03-01T08:03:28;46.67;;;27.10;;
24801;SDS011;12898;50.520;12.152;2023-03-01T08:05:54;47.23;;;27.33;;
24801;SDS011;12898;50.520;12.152;2023-03-01T08:08:20;46.17;;;26.23;;
24801;SDS011;12898;50.520;12.152;2023-03-01T08:10:46;43.80;;;24.90;;
24801;SDS011;12898;50.520;12.152;2023-03-01T08:13:11;44.83;;;24.30;;
24801;SDS011;12898;50.520;12.152;2023-03-01T08:15:37;41.23;;;23.07;;
24801;SDS011;12898;50.520;12.152;2023-03-01T08:18:03;39.43;;;23.03;;
24801;SDS011;12898;50.520;12.152;2023-03-01T08:20:29;40.97;;;23.40;;
24801;SDS011;12898;50.520;12.152;2023-03-01T08:22:54;41.53;;;23.10;;
24801;SDS011;12898;50.520;12.152;2023-03-01T08:25:20;39.83;;;22.20;;
24801;SDS011;12898;50.520;12.152;2023-03-01T08:27:46;37.50;;;21.67;;
24801;SDS011;12898;50.520;12.152;2023-03-01T08:30:12;35.30;;;20.83;;
24801;SDS011;12898;50.520;12.152;2023-03-01T08:32:38;37.50;;;22.10;;
24801;SDS011;12898;50.520;12.152;2023-03-01T08:35:04;39.00;;;21.10;;
24801;SDS011;12898;50.520;12.152;2023-03-01T08:37:31;38.00;;;21.50;;
24801;SDS011;12898;50.520;12.152;2023-03-01T08:39:58;36.47;;;20.50;;
24801;SDS011;12898;50.520;12.152;2023-03-01T08:42:25;35.10;;;21.37;;
24801;SDS011;12898;50.520;12.152;2023-03-01T08:44:51;37.63;;;21.63;;
24801;SDS011;12898;50.520;12.152;2023-03-01T08:47:17;35.23;;;21.13;;
24801;SDS011;12898;50.520;12.152;2023-03-01T08:49:43;35.90;;;21.63;;
24801;SDS011;12898;50.520;12.152;2023-03-01T08:52:09;34.87;;;21.37;;
24801;SDS011;12898;50.520;12.152;2023-03-01T08:54:35;37.93;;;21.13;;
24801;SDS011;12898;50.520;12.152;2023-03-01T08:57:02;41.57;;;22.63;;
24801;SDS011;12898;50.520;12.152;2023-03-01T08:59:28;37.77;;;22.33;;
24801;SDS011;12898;50.520;12.152;2023-03-01T09:01:54;39.83;;;23.00;;
24801;SDS011;12898;50.520;12.152;2023-03-01T09:04:20;38.80;;;22.50;;
24801;SDS011;12898;50.520;12.152;2023-03-01T09:06:46;36.60;;;20.93;;
24801;SDS011;12898;50.520;12.152;2023-03-01T09:09:14;32.97;;;20.70;;
24801;SDS011;12898;50.520;12.152;2023-03-01T09:11:42;37.47;;;21.07;;
24801;SDS011;12898;50.520;12.152;2023-03-01T09:14:11;34.97;;;21.73;;
24801;SDS011;12898;50.520;12.152;2023-03-01T09:16:39;46.07;;;25.93;;
24801;SDS011;12898;50.520;12.152;2023-03-01T09:19:05;42.13;;;24.70;;
24801;SDS011;12898;50.520;12.152;2023-03-01T09:21:31;33.00;;;20.57;;
24801;SDS011;12898;50.520;12.152;2023-03-01T09:23:57;32.20;;;20.63;;
24801;SDS011;12898;50.520;12.152;2023-03-01T09:26:23;33.67;;;19.93;;
24801;SDS011;12898;50.520;12.152;2023-03-01T09:28:51;34.37;;;21.17;;
24801;SDS011;12898;50.520;12.152;2023-03-01T09:31:21;34.13;;;20.70;;
24801;SDS011;12898;50.520;12.152;2023-03-01T09:33:49;34.63;;;21.70;;
24801;SDS011;12898;50.520;12.152;2023-03-01T09:36:21;30.30;;;20.00;;
24801;SDS011;12898;50.520;12.152;2023-03-01T09:38:50;31.63;;;19.43;;
24801;SDS011;12898;50.520;12.152;2023-03-01T09:46:44;30.53;;;19.77;;
24801;SDS011;12898;50.520;12.152;2023-03-01T09:49:12;32.27;;;19.53;;
24801;SDS011;12898;50.520;12.152;2023-03-01T09:52:01;30.00;;;18.63;;
24801;SDS011;12898;50.520;12.152;2023-03-01T09:55:17;28.70;;;18.63;;
24801;SDS011;12898;50.520;12.152;2023-03-01T09:58:06;30.00;;;19.50;;
24801;SDS011;12898;50.520;12.152;2023-03-01T10:00:42;29.23;;;19.00;;
24801;SDS011;12898;50.520;12.152;2023-03-01T10:03:24;28.03;;;19.27;;
24801;SDS011;12898;50.520;12.152;2023-03-01T10:06:00;30.33;;;18.60;;
24801;SDS011;12898;50.520;12.152;2023-03-01T10:08:50;31.53;;;19.30;;
24801;SDS011;12898;50.520;12.152;2023-03-01T10:11:31;29.47;;;18.67;;
24801;SDS011;12898;50.520;12.152;2023-03-01T10:14:15;33.67;;;20.07;;
24801;SDS011;12898;50.520;12.152;2023-03-01T10:19:50;31.67;;;19.30;;
24801;SDS011;12898;50.520;12.152;2023-03-01T10:22:17;32.07;;;19.63;;
24801;SDS011;12898;50.520;12.152;2023-03-01T10:24:53;29.70;;;18.47;;
24801;SDS011;12898;50.520;12.152;2023-03-01T10:27:24;32.33;;;19.53;;
24801;SDS011;12898;50.520;12.152;2023-03-01T10:32:42;30.30;;;18.87;;
24801;SDS011;12898;50.520;12.152;2023-03-01T10:35:16;32.93;;;20.23;;
24801;SDS011;12898;50.520;12.152;2023-03-01T10:38:23;29.30;;;19.40;;
24801;SDS011;12898;50.520;12.152;2023-03-01T10:40:58;30.33;;;19.10;;
24801;SDS011;12898;50.520;12.152;2023-03-01T10:43:43;29.40;;;18.38;;
24801;SDS011;12898;50.520;12.152;2023-03-01T10:46:26;29.33;;;19.80;;
24801;SDS011;12898;50.520;12.152;2023-03-01T10:51:46;33.40;;;19.88;;
24801;SDS011;12898;50.520;12.152;2023-03-01T10:54:19;29.95;;;19.13;;
24801;SDS011;12898;50.520;12.152;2023-03-01T10:56:54;29.08;;;18.98;;
24801;SDS011;12898;50.520;12.152;2023-03-01T10:59:26;27.48;;;18.00;;
24801;SDS011;12898;50.520;12.152;2023-03-01T11:02:12;27.35;;;18.10;;
24801;SDS011;12898;50.520;12.152;2023-03-01T11:04:59;30.33;;;19.10;;
24801;SDS011;12898;50.520;12.152;2023-03-01T11:07:26;30.83;;;19.98;;
24801;SDS011;12898;50.520;12.152;2023-03-01T11:09:52;30.23;;;19.02;;
24801;SDS011;12898;50.520;12.152;2023-03-01T11:12:17;28.90;;;18.55;;
24801;SDS011;12898;50.520;12.152;2023-03-01T11:14:47;28.08;;;18.25;;
24801;SDS011;12898;50.520;12.152;2023-03-01T11:17:21;31.83;;;18.70;;
24801;SDS011;12898;50.520;12.152;2023-03-01T11:22:38;28.70;;;18.52;;
24801;SDS011;12898;50.520;12.152;2023-03-01T11:25:14;26.00;;;17.13;;
24801;SDS011;12898;50.520;12.152;2023-03-01T11:27:41;24.50;;;16.77;;
24801;SDS011;12898;50.520;12.152;2023-03-01T11:39:02;25.58;;;16.70;;
24801;SDS011;12898;50.520;12.152;2023-03-01T11:41:44;27.65;;;16.33;;
24801;SDS011;12898;50.520;12.152;2023-03-01T11:44:25;26.48;;;17.42;;
24801;SDS011;12898;50.520;12.152;2023-03-01T11:49:53;26.83;;;16.65;;
24801;SDS011;12898;50.520;12.152;2023-03-01T12:03:56;25.15;;;17.48;;
24801;SDS011;12898;50.520;12.152;2023-03-01T12:15:47;29.00;;;18.75;;
24801;SDS011;12898;50.520;12.152;2023-03-01T12:18:50;25.92;;;18.45;;
24801;SDS011;12898;50.520;12.152;2023-03-01T12:21:42;27.73;;;19.35;;
24801;SDS011;12898;50.520;12.152;2023-03-01T12:27:09;28.35;;;19.08;;
24801;SDS011;12898;50.520;12.152;2023-03-01T12:30:03;30.25;;;18.92;;
24801;SDS011;12898;50.520;12.152;2023-03-01T12:33:07;28.25;;;19.02;;
24801;SDS011;12898;50.520;12.152;2023-03-01T12:36:06;29.60;;;19.23;;
24801;SDS011;12898;50.520;12.152;2023-03-01T12:38:56;32.28;;;20.48;;
24801;SDS011;12898;50.520;12.152;2023-03-01T12:47:58;28.33;;;18.73;;
24801;SDS011;12898;50.520;12.152;2023-03-01T12:50:48;29.35;;;19.38;;
24801;SDS011;12898;50.520;12.152;2023-03-01T12:53:31;27.20;;;18.83;;
24801;SDS011;12898;50.520;12.152;2023-03-01T12:56:06;29.13;;;20.52;;
24801;SDS011;12898;50.520;12.152;2023-03-01T13:01:59;28.85;;;20.05;;
24801;SDS011;12898;50.520;12.152;2023-03-01T13:07:48;29.15;;;19.38;;
24801;SDS011;12898;50.520;12.152;2023-03-01T13:10:49;28.08;;;19.25;;
24801;SDS011;12898;50.520;12.152;2023-03-01T13:13:22;29.02;;;19.42;;
24801;SDS011;12898;50.520;12.152;2023-03-01T13:15:51;28.25;;;19.67;;
24801;SDS011;12898;50.520;12.152;2023-03-01T13:20:48;28.75;;;20.23;;
24801;SDS011;12898;50.520;12.152;2023-03-01T13:33:53;26.90;;;19.35;;
24801;SDS011;12898;50.520;12.152;2023-03-01T13:44:21;26.83;;;18.42;;
24801;SDS011;12898;50.520;12.152;2023-03-01T13:46:50;25.52;;;18.00;;
24801;SDS011;12898;50.520;12.152;2023-03-01T13:49:20;28.02;;;18.88;;
24801;SDS011;12898;50.520;12.152;2023-03-01T13:51:54;27.95;;;17.95;;
24801;SDS011;12898;50.520;12.152;2023-03-01T13:54:25;29.88;;;20.20;;
24801;SDS011;12898;50.520;12.152;2023-03-01T13:56:55;30.50;;;20.48;;
24801;SDS011;12898;50.520;12.152;2023-03-01T13:59:23;27.17;;;19.50;;
24801;SDS011;12898;50.520;12.152;2023-03-01T14:01:52;28.15;;;18.10;;
24801;SDS011;12898;50.520;12.152;2023-03-01T14:04:24;26.52;;;18.88;;
24801;SDS011;12898;50.520;12.152;2023-03-01T14:07:18;26.73;;;18.33;;
24801;SDS011;12898;50.520;12.152;2023-03-01T14:09:52;28.08;;;19.15;;
24801;SDS011;12898;50.520;12.152;2023-03-01T14:12:26;26.65;;;18.50;;
24801;SDS011;12898;50.520;12.152;2023-03-01T14:15:39;27.30;;;18.83;;
24801;SDS011;12898;50.520;12.152;2023-03-01T14:18:15;28.33;;;19.13;;
24801;SDS011;12898;50.520;12.152;2023-03-01T14:21:08;28.10;;;18.05;;
24801;SDS011;12898;50.520;12.152;2023-03-01T14:23:38;25.77;;;18.17;;
24801;SDS011;12898;50.520;12.152;2023-03-01T14:26:07;26.40;;;18.60;;
24801;SDS011;12898;50.520;12.152;2023-03-01T14:28:36;27.08;;;19.30;;
24801;SDS011;12898;50.520;12.152;2023-03-01T14:31:28;28.83;;;19.45;;
24801;SDS011;12898;50.520;12.152;2023-03-01T14:34:04;26.17;;;18.42;;
24801;SDS011;12898;50.520;12.152;2023-03-01T14:36:31;28.00;;;18.63;;
24801;SDS011;12898;50.520;12.152;2023-03-01T14:38:59;28.10;;;18.90;;
24801;SDS011;12898;50.520;12.152;2023-03-01T14:41:30;26.75;;;18.52;;
24801;SDS011;12898;50.520;12.152;2023-03-01T14:44:01;26.73;;;18.38;;
24801;SDS011;12898;50.520;12.152;2023-03-01T14:46:38;29.10;;;18.63;;
24801;SDS011;12898;50.520;12.152;2023-03-01T14:51:40;28.67;;;18.27;;
24801;SDS011;12898;50.520;12.152;2023-03-01T14:54:20;29.55;;;18.90;;
24801;SDS011;12898;50.520;12.152;2023-03-01T14:56:51;25.73;;;17.73;;
24801;SDS011;12898;50.520;12.152;2023-03-01T14:59:23;29.30;;;19.20;;
24801;SDS011;12898;50.520;12.152;2023-03-01T15:01:49;27.27;;;19.27;;
24801;SDS011;12898;50.520;12.152;2023-03-01T15:04:18;31.67;;;18.90;;
24801;SDS011;12898;50.520;12.152;2023-03-01T15:06:46;27.85;;;19.55;;
24801;SDS011;12898;50.520;12.152;2023-03-01T15:09:15;29.85;;;19.75;;
24801;SDS011;12898;50.520;12.152;2023-03-01T15:11:42;30.35;;;20.05;;
24801;SDS011;12898;50.520;12.152;2023-03-01T15:14:25;26.50;;;18.48;;
24801;SDS011;12898;50.520;12.152;2023-03-01T15:26:06;29.00;;;19.92;;
24801;SDS011;12898;50.520;12.152;2023-03-01T15:28:55;30.90;;;19.80;;
24801;SDS011;12898;50.520;12.152;2023-03-01T15:31:28;27.35;;;18.98;;
24801;SDS011;12898;50.520;12.152;2023-03-01T15:36:48;32.08;;;20.55;;
24801;SDS011;12898;50.520;12.152;2023-03-01T15:39:27;31.88;;;20.33;;
24801;SDS011;12898;50.520;12.152;2023-03-01T15:41:55;29.60;;;19.02;;
24801;SDS011;12898;50.520;12.152;2023-03-01T15:46:50;31.23;;;20.38;;
24801;SDS011;12898;50.520;12.152;2023-03-01T15:52:21;29.25;;;18.55;;
24801;SDS011;12898;50.520;12.152;2023-03-01T15:55:02;31.88;;;20.08;;
24801;SDS011;12898;50.520;12.152;2023-03-01T15:57:31;33.67;;;20.02;;
24801;SDS011;12898;50.520;12.152;2023-03-01T15:59:57;30.02;;;19.80;;
24801;SDS011;12898;50.520;12.152;2023-03-01T16:02:23;30.58;;;18.77;;
24801;SDS011;12898;50.520;12.152;2023-03-01T16:04:49;32.13;;;19.13;;
24801;SDS011;12898;50.520;12.152;2023-03-01T16:07:15;31.43;;;19.33;;
24801;SDS011;12898;50.520;12.152;2023-03-01T16:09:41;27.73;;;19.07;;
24801;SDS011;12898;50.520;12.152;2023-03-01T16:12:11;30.90;;;19.43;;
24801;SDS011;12898;50.520;12.152;2023-03-01T16:14:40;34.80;;;21.17;;
24801;SDS011;12898;50.520;12.152;2023-03-01T16:17:06;30.30;;;19.50;;
24801;SDS011;12898;50.520;12.152;2023-03-01T16:19:34;33.00;;;19.67;;
24801;SDS011;12898;50.520;12.152;2023-03-01T16:22:02;31.53;;;19.23;;
24801;SDS011;12898;50.520;12.152;2023-03-01T16:24:28;33.33;;;19.13;;
24801;SDS011;12898;50.520;12.152;2023-03-01T16:26:54;30.10;;;19.53;;
24801;SDS011;12898;50.520;12.152;2023-03-01T16:29:20;34.73;;;20.07;;